KCMI/CMI METAR and TAF weather

Enter ICAO airport designator
Station Type Date Time Source
KCMI METAR 2019/08/24 19:53 UTC NOAA

KCMI 241953Z 09010G16KT 10SM SCT049 24/12 A3017 RMK AO2 SLP215 T02390117


Station Type Date Time Source
KCMI Decoded METAR 2019/08/24 19:53 UTC NOAA

Station name not available
Aug 24, 2019 - 03:53 PM EDT / 2019.08.24 1953 UTC
Wind: from the E (090 degrees) at 12 MPH (10 KT) gusting to 18 MPH (16 KT):0
Visibility: 10 mile(s):0
Sky conditions: partly cloudy
Temperature: 75.0 F (23.9 C)
Dew Point: 53.1 F (11.7 C)
Relative Humidity: 46%
Pressure (altimeter): 30.17 in. Hg (1021 hPa)
ob: KCMI 241953Z 09010G16KT 10SM SCT049 24/12 A3017 RMK AO2 SLP215 T02390117
cycle: 20

Station Type Date Time Source
KCMI TAF 2019/08/24 19:09 UTC NOAA

TAF
AMD KCMI 241906Z 2419/2518 09011G20KT P6SM SCT045 BKN250
TEMPO 2419/2421 BKN045
FM250100 07008KT P6SM SCT250
FM251500 09010KT P6SM SCT045 BKN250

Example: see airport list